createdAt,value
2022-11-28T00:21:20.710Z,1.59
2022-11-28T00:23:48.096Z,1.58
2022-11-28T00:26:19.217Z,1.60
2022-11-28T00:28:45.792Z,1.61
2022-11-28T00:31:16.749Z,1.65
2022-11-28T00:33:43.248Z,1.67
2022-11-28T00:36:10.823Z,1.67
2022-11-28T00:38:37.277Z,1.73
2022-11-28T00:41:09.732Z,1.73
2022-11-28T00:43:36.466Z,1.78
2022-11-28T00:46:04.068Z,1.80
2022-11-28T00:48:31.934Z,1.82
2022-11-28T00:51:06.812Z,1.90
2022-11-28T00:53:32.986Z,1.90
2022-11-28T00:55:59.120Z,1.92
2022-11-28T00:58:25.250Z,1.97
2022-11-28T01:00:51.526Z,2.07
2022-11-28T01:03:17.699Z,2.11
2022-11-28T01:05:43.894Z,2.16
2022-11-28T01:08:10.845Z,2.16
2022-11-28T01:10:42.273Z,2.16
2022-11-28T01:13:09.479Z,2.15
2022-11-28T01:15:35.877Z,2.13
2022-11-28T01:18:02.809Z,2.19
2022-11-28T01:20:29.185Z,2.23
2022-11-28T01:22:55.357Z,2.25
2022-11-28T01:25:21.502Z,2.20
2022-11-28T01:27:47.779Z,2.24
2022-11-28T01:30:14.131Z,2.25
2022-11-28T01:32:40.391Z,2.28
2022-11-28T01:35:06.815Z,2.32
2022-11-28T01:37:32.939Z,2.33
2022-11-28T01:39:59.155Z,2.39
2022-11-28T01:42:25.341Z,2.46
2022-11-28T01:44:54.269Z,2.45
2022-11-28T01:47:30.504Z,2.49
2022-11-28T01:49:56.836Z,2.46
2022-11-28T01:52:23.911Z,2.49
2022-11-28T01:54:54.962Z,2.49
2022-11-28T01:57:23.953Z,2.45
2022-11-28T02:00:06.873Z,2.55
2022-11-28T02:02:49.177Z,2.52
2022-11-28T02:05:16.971Z,2.53
2022-11-28T02:07:44.309Z,2.50
2022-11-28T02:10:13.837Z,2.50
2022-11-28T02:12:58.769Z,2.51
2022-11-28T02:15:54.955Z,2.51
2022-11-28T02:18:33.166Z,2.54
2022-11-28T02:21:24.258Z,2.55
2022-11-28T02:24:13.282Z,2.57
2022-11-28T02:27:16.380Z,2.52
2022-11-28T02:29:57.226Z,2.49
2022-11-28T02:32:34.735Z,2.47
2022-11-28T02:35:36.563Z,2.52
2022-11-28T02:38:40.067Z,2.55
2022-11-28T02:41:09.644Z,2.57
2022-11-28T02:43:52.089Z,2.61
2022-11-28T02:46:22.036Z,2.63
2022-11-28T02:49:06.848Z,2.67
2022-11-28T02:51:42.518Z,2.61
2022-11-28T02:54:13.450Z,2.63
2022-11-28T02:56:39.615Z,2.64
2022-11-28T02:59:37.243Z,2.61
2022-11-28T03:02:13.948Z,2.56
2022-11-28T03:05:13.898Z,2.54
2022-11-28T03:08:05.087Z,2.51
2022-11-28T03:10:45.054Z,2.43
2022-11-28T03:13:17.478Z,2.42
2022-11-28T03:16:15.135Z,2.34
2022-11-28T03:19:05.227Z,2.27
2022-11-28T03:21:47.593Z,2.23
2022-11-28T03:24:22.985Z,2.19
2022-11-28T03:26:58.581Z,2.13
2022-11-28T03:29:37.091Z,2.08
2022-11-28T03:32:11.732Z,2.11
2022-11-28T03:34:44.590Z,2.14
2022-11-28T03:37:23.490Z,2.09
2022-11-28T03:39:55.381Z,2.08
2022-11-28T03:42:24.893Z,2.05
2022-11-28T03:45:12.644Z,2.02
2022-11-28T03:47:43.508Z,2.02
2022-11-28T03:50:17.484Z,1.98
2022-11-28T03:52:51.005Z,1.91
2022-11-28T03:55:33.126Z,1.87
2022-11-28T03:58:07.519Z,1.83
2022-11-28T04:00:38.288Z,1.78
2022-11-28T04:03:24.247Z,1.75
2022-11-28T04:06:19.040Z,1.69
2022-11-28T04:09:18.401Z,1.65
2022-11-28T04:12:04.686Z,1.62
2022-11-28T04:14:39.872Z,1.59
2022-11-28T04:17:13.627Z,1.56
2022-11-28T04:19:55.055Z,1.53
2022-11-28T04:22:42.657Z,1.52
2022-11-28T04:25:13.601Z,1.50
2022-11-28T04:27:53.176Z,1.49
2022-11-28T04:30:19.476Z,1.47
2022-11-28T04:32:55.927Z,1.48
2022-11-28T04:35:31.056Z,1.46
2022-11-28T04:37:59.230Z,1.49
2022-11-28T04:40:27.574Z,1.57
2022-11-28T04:43:01.770Z,1.64
2022-11-28T04:45:36.892Z,1.73
2022-11-28T04:48:03.718Z,1.75
2022-11-28T04:50:44.007Z,1.77
2022-11-28T04:53:20.400Z,1.78
2022-11-28T04:55:52.735Z,1.83
2022-11-28T04:58:25.162Z,1.84
2022-11-28T05:00:55.005Z,1.89
2022-11-28T05:03:22.325Z,1.93
2022-11-28T05:05:51.192Z,1.97
2022-11-28T05:08:18.923Z,2.00
2022-11-28T05:10:45.462Z,2.03
2022-11-28T05:13:11.576Z,2.07
2022-11-28T05:15:37.772Z,2.12
2022-11-28T05:18:04.302Z,2.17
2022-11-28T05:20:30.565Z,2.24
2022-11-28T05:22:56.754Z,2.16
2022-11-28T05:25:23.262Z,2.19
2022-11-28T05:27:49.526Z,2.21
2022-11-28T05:30:15.866Z,2.28
2022-11-28T05:32:42.163Z,2.25
2022-11-28T05:35:08.593Z,2.20
2022-11-28T05:37:34.754Z,2.16
2022-11-28T05:40:00.892Z,2.24
2022-11-28T05:42:28.540Z,2.29
2022-11-28T05:44:54.661Z,2.39
2022-11-28T05:47:20.787Z,2.43
2022-11-28T05:49:47.587Z,2.38
2022-11-28T05:52:13.706Z,2.48
2022-11-28T05:54:39.824Z,2.50
2022-11-28T05:57:08.573Z,2.52
2022-11-28T05:59:34.849Z,2.58
2022-11-28T06:02:01.192Z,2.52
2022-11-28T06:04:27.407Z,2.48
2022-11-28T06:06:53.555Z,2.50
2022-11-28T06:09:23.335Z,2.46
2022-11-28T06:11:51.878Z,2.57
2022-11-28T06:14:18.028Z,2.57
2022-11-28T06:16:44.284Z,2.47
2022-11-28T06:19:12.337Z,2.43
2022-11-28T06:21:38.735Z,2.48
2022-11-28T06:24:05.005Z,2.44
2022-11-28T06:26:31.217Z,2.47
2022-11-28T06:28:57.352Z,2.56
2022-11-28T06:31:28.395Z,2.60
2022-11-28T06:33:54.744Z,2.65
2022-11-28T06:36:21.077Z,2.66
2022-11-28T06:38:47.259Z,2.67
2022-11-28T06:41:17.281Z,2.71
2022-11-28T06:43:43.480Z,2.66
2022-11-28T06:46:21.189Z,2.62
2022-11-28T06:48:48.738Z,2.69
2022-11-28T06:51:15.510Z,2.71
2022-11-28T06:53:42.079Z,2.69
2022-11-28T06:56:11.160Z,2.73
2022-11-28T06:58:37.408Z,2.58
2022-11-28T07:01:13.145Z,2.51
2022-11-28T07:03:39.784Z,2.50
2022-11-28T07:06:06.956Z,2.49
2022-11-28T07:08:33.840Z,2.38
2022-11-28T07:11:08.789Z,2.42
2022-11-28T07:13:34.938Z,2.56
2022-11-28T07:16:01.061Z,2.67
2022-11-28T07:18:27.162Z,2.50
2022-11-28T07:20:53.297Z,2.64
2022-11-28T07:23:19.409Z,2.68
2022-11-28T07:25:45.524Z,2.70
2022-11-28T07:28:11.735Z,2.71
2022-11-28T07:30:37.922Z,2.74
2022-11-28T07:33:04.063Z,2.78
2022-11-28T07:35:30.194Z,2.78
2022-11-28T07:37:56.338Z,2.86
2022-11-28T07:40:22.960Z,2.97
2022-11-28T07:42:49.172Z,2.86
2022-11-28T07:45:15.391Z,2.95
2022-11-28T07:47:41.518Z,3.02
2022-11-28T07:50:08.302Z,3.08
2022-11-28T07:52:34.437Z,3.09
2022-11-28T07:55:00.573Z,3.27
2022-11-28T07:57:26.723Z,3.32
2022-11-28T07:59:52.859Z,3.20
2022-11-28T08:02:19.078Z,3.31
2022-11-28T08:04:50.448Z,3.41
2022-11-28T08:07:19.831Z,3.50
2022-11-28T08:09:46.106Z,3.46
2022-11-28T08:12:12.253Z,3.55
2022-11-28T08:14:38.370Z,3.62
2022-11-28T08:17:04.555Z,3.70
2022-11-28T08:19:35.127Z,3.73
2022-11-28T08:22:01.578Z,3.81
2022-11-28T08:24:27.967Z,3.74
2022-11-28T08:26:54.129Z,3.72
2022-11-28T08:29:20.258Z,3.84
2022-11-28T08:31:46.464Z,3.98
2022-11-28T08:34:12.868Z,4.02
2022-11-28T08:36:39.490Z,4.07
2022-11-28T08:41:59.777Z,4.34
2022-11-28T08:44:27.126Z,4.30
2022-11-28T08:46:54.352Z,4.34
2022-11-28T08:49:20.772Z,4.32
2022-11-28T08:51:47.032Z,4.16
2022-11-28T08:54:13.168Z,4.12
2022-11-28T08:56:39.401Z,3.97
2022-11-28T08:59:07.164Z,3.87
2022-11-28T09:01:33.427Z,3.99
2022-11-28T09:03:59.604Z,3.97
2022-11-28T09:06:25.864Z,4.14
2022-11-28T09:08:52.684Z,4.29
2022-11-28T09:11:20.840Z,4.32
2022-11-28T09:13:48.511Z,4.38
2022-11-28T09:16:15.608Z,4.51
2022-11-28T09:18:42.204Z,4.47
2022-11-28T09:21:10.850Z,4.31
2022-11-28T09:23:41.630Z,4.31
2022-11-28T09:26:12.932Z,4.27
2022-11-28T09:28:40.568Z,4.28
2022-11-28T09:31:07.693Z,4.16
2022-11-28T09:33:34.227Z,4.12
2022-11-28T09:36:14.725Z,4.13
2022-11-28T09:38:41.582Z,4.17
2022-11-28T09:41:29.244Z,4.25
2022-11-28T09:44:01.798Z,4.27
2022-11-28T09:46:33.361Z,4.11
2022-11-28T09:49:03.474Z,4.28
2022-11-28T09:51:52.693Z,4.19
2022-11-28T09:54:44.496Z,4.23
2022-11-28T09:57:30.883Z,4.14
2022-11-28T09:59:57.001Z,4.25
2022-11-28T10:02:41.121Z,4.22
2022-11-28T10:05:24.401Z,4.53
2022-11-28T10:08:19.729Z,4.88
2022-11-28T10:11:04.908Z,5.03
2022-11-28T10:14:06.553Z,5.30
2022-11-28T10:16:55.036Z,5.43
2022-11-28T10:19:53.882Z,5.51
2022-11-28T10:22:28.774Z,5.52
2022-11-28T10:24:57.610Z,5.46
2022-11-28T10:27:34.403Z,5.65
2022-11-28T10:30:15.529Z,5.64
2022-11-28T10:32:47.090Z,5.59
2022-11-28T10:35:42.333Z,5.52
2022-11-28T10:38:12.174Z,5.37
2022-11-28T10:40:56.716Z,5.21
2022-11-28T10:43:38.305Z,5.50
2022-11-28T10:46:12.627Z,5.53
2022-11-28T10:48:55.132Z,5.56
2022-11-28T10:51:38.368Z,5.64
2022-11-28T10:54:16.871Z,5.56
2022-11-28T10:56:57.402Z,5.46
2022-11-28T10:59:38.684Z,5.57
2022-11-28T11:02:19.931Z,5.59
2022-11-28T11:04:46.218Z,5.70
2022-11-28T11:07:21.019Z,5.76
2022-11-28T11:09:50.089Z,5.84
2022-11-28T11:12:21.725Z,5.31
2022-11-28T11:14:47.928Z,5.06
2022-11-28T11:17:36.467Z,5.01
2022-11-28T11:20:18.613Z,5.15
2022-11-28T11:22:55.014Z,5.21
2022-11-28T11:25:21.146Z,5.25
2022-11-28T11:27:56.765Z,5.20
2022-11-28T11:30:43.882Z,4.84
2022-11-28T11:33:17.310Z,4.82
2022-11-28T11:35:47.350Z,4.61
2022-11-28T11:38:22.568Z,4.46
2022-11-28T11:40:52.086Z,4.40
2022-11-28T11:43:31.544Z,4.57
2022-11-28T11:46:14.790Z,4.74
2022-11-28T11:48:50.394Z,4.79
2022-11-28T11:51:25.948Z,4.91
2022-11-28T11:54:14.813Z,4.70
2022-11-28T11:56:44.150Z,4.72
2022-11-28T11:59:16.183Z,4.70
2022-11-28T12:01:45.490Z,4.77
2022-11-28T12:04:45.048Z,4.80
2022-11-28T12:07:24.992Z,4.83
2022-11-28T12:09:54.787Z,4.85
2022-11-28T12:12:29.187Z,4.79
2022-11-28T12:14:55.624Z,4.72
2022-11-28T12:17:50.075Z,4.92
2022-11-28T12:20:26.571Z,4.99
2022-11-28T12:23:29.256Z,4.92
2022-11-28T12:26:23.415Z,4.67
2022-11-28T12:29:21.869Z,4.57
2022-11-28T12:32:22.638Z,4.39
2022-11-28T12:35:16.167Z,4.25
2022-11-28T12:38:10.771Z,4.23
2022-11-28T12:40:59.268Z,4.12
2022-11-28T12:44:02.600Z,4.17
2022-11-28T12:46:34.869Z,4.20
2022-11-28T12:49:17.596Z,4.31
2022-11-28T12:52:08.750Z,4.46
2022-11-28T12:55:20.453Z,4.57
2022-11-28T12:58:06.728Z,4.67
2022-11-28T13:00:34.310Z,4.71
2022-11-28T13:03:21.448Z,4.75
2022-11-28T13:06:24.940Z,4.73
2022-11-28T13:09:14.483Z,4.74
2022-11-28T13:12:17.625Z,4.61
2022-11-28T13:14:54.460Z,4.69
2022-11-28T13:17:45.526Z,4.82
2022-11-28T13:20:29.226Z,4.99
2022-11-28T13:23:29.213Z,5.00
2022-11-28T13:26:17.116Z,4.89
2022-11-28T13:28:57.775Z,4.86
2022-11-28T13:31:40.772Z,5.04
2022-11-28T13:34:15.427Z,5.07
2022-11-28T13:39:46.899Z,4.78
2022-11-28T13:43:02.359Z,4.69
2022-11-28T13:45:34.979Z,4.61
2022-11-28T13:49:06.468Z,4.51
2022-11-28T13:51:35.211Z,4.38
2022-11-28T13:54:19.999Z,4.38
2022-11-28T13:57:06.388Z,4.24
2022-11-28T13:59:33.533Z,4.16
2022-11-28T14:02:02.703Z,4.10
2022-11-28T14:04:31.424Z,4.00
2022-11-28T14:07:03.868Z,4.05
2022-11-28T14:09:47.757Z,3.93
2022-11-28T14:12:24.909Z,3.93
2022-11-28T14:15:10.319Z,3.95
2022-11-28T14:18:54.333Z,3.94
2022-11-28T14:21:40.713Z,3.72
2022-11-28T14:24:53.565Z,3.79
2022-11-28T14:27:30.893Z,3.77
2022-11-28T14:29:58.873Z,3.76
2022-11-28T14:32:31.567Z,3.55
2022-11-28T14:34:59.348Z,3.50
2022-11-28T14:37:29.464Z,3.39
2022-11-28T14:39:57.583Z,3.28
2022-11-28T14:45:34.766Z,3.22
2022-11-28T14:48:18.180Z,3.22
2022-11-28T14:50:59.072Z,3.25
2022-11-28T14:53:34.798Z,3.11
2022-11-28T14:56:11.504Z,3.10
2022-11-28T14:58:38.385Z,3.18
2022-11-28T15:01:10.318Z,3.11
2022-11-28T15:03:59.153Z,3.15
2022-11-28T15:06:35.325Z,3.26
2022-11-28T15:09:19.023Z,3.23
2022-11-28T15:12:00.547Z,3.20
2022-11-28T15:14:29.660Z,3.10
2022-11-28T15:17:00.523Z,3.07
2022-11-28T15:19:33.689Z,3.11
2022-11-28T15:22:00.067Z,3.01
2022-11-28T15:24:33.169Z,2.94
2022-11-28T15:27:22.566Z,2.91
2022-11-28T15:30:15.435Z,2.96
2022-11-28T15:32:42.285Z,2.92
2022-11-28T15:35:15.393Z,2.92
2022-11-28T15:37:51.543Z,2.87
2022-11-28T15:40:31.370Z,2.85
2022-11-28T15:42:59.180Z,2.80
2022-11-28T15:45:28.379Z,2.68
2022-11-28T15:47:55.660Z,2.70
2022-11-28T15:50:25.404Z,2.83
2022-11-28T15:52:58.453Z,2.71
2022-11-28T15:55:28.828Z,2.82
2022-11-28T15:58:19.329Z,2.88
2022-11-28T16:00:52.214Z,2.88
2022-11-28T16:03:26.283Z,2.80
2022-11-28T16:05:54.553Z,2.72
2022-11-28T16:08:36.106Z,2.67
2022-11-28T16:11:04.775Z,2.69
2022-11-28T16:13:32.495Z,2.65
2022-11-28T16:16:01.669Z,2.72
2022-11-28T16:18:29.261Z,2.83
2022-11-28T16:20:58.155Z,2.81
2022-11-28T16:23:35.855Z,2.86
2022-11-28T16:26:04.371Z,2.91
2022-11-28T16:28:36.469Z,2.88
2022-11-28T16:31:09.781Z,2.87
2022-11-28T16:33:41.065Z,2.90
2022-11-28T16:36:33.913Z,2.84
2022-11-28T16:39:10.440Z,2.80
2022-11-28T16:41:38.703Z,2.88
2022-11-28T16:44:11.134Z,2.88
2022-11-28T16:46:58.073Z,2.78
2022-11-28T16:49:34.875Z,2.78
2022-11-28T16:52:20.902Z,2.74
2022-11-28T16:54:54.857Z,2.64
2022-11-28T16:57:21.505Z,2.59
2022-11-28T16:59:49.285Z,2.68
2022-11-28T17:02:19.656Z,2.74
2022-11-28T17:04:47.938Z,2.79
2022-11-28T17:07:16.968Z,2.80
2022-11-28T17:09:44.702Z,2.70
2022-11-28T17:12:24.514Z,2.70
2022-11-28T17:14:50.788Z,2.69
2022-11-28T17:17:18.704Z,2.68
2022-11-28T17:19:45.658Z,2.69
2022-11-28T17:22:16.237Z,2.79
2022-11-28T17:24:42.604Z,2.78
2022-11-28T17:27:12.066Z,2.62
2022-11-28T17:29:38.559Z,2.51
2022-11-28T17:32:05.544Z,2.54
2022-11-28T17:34:33.815Z,2.51
2022-11-28T17:37:01.267Z,2.50
2022-11-28T17:39:28.626Z,2.51
2022-11-28T17:41:56.890Z,2.59
2022-11-28T17:44:24.652Z,2.64
2022-11-28T17:46:52.334Z,2.73
2022-11-28T17:49:19.380Z,2.70
2022-11-28T17:51:46.127Z,2.73
2022-11-28T17:54:17.865Z,2.72
2022-11-28T17:56:45.599Z,2.65
2022-11-28T17:59:13.261Z,2.61
2022-11-28T18:01:39.611Z,2.62
2022-11-28T18:04:05.824Z,2.60
2022-11-28T18:06:32.065Z,2.57
2022-11-28T18:08:59.957Z,2.64
2022-11-28T18:11:27.303Z,2.60
2022-11-28T18:13:54.163Z,2.58
2022-11-28T18:16:23.209Z,2.55
2022-11-28T18:18:49.628Z,2.65
2022-11-28T18:21:16.678Z,2.64
2022-11-28T18:23:46.074Z,2.65
2022-11-28T18:26:14.677Z,2.64
2022-11-28T18:28:41.561Z,2.60
2022-11-28T18:31:11.795Z,2.55
2022-11-28T18:33:38.942Z,2.60
2022-11-28T18:36:13.391Z,2.49
2022-11-28T18:38:40.559Z,2.59
2022-11-28T18:41:09.475Z,2.59
2022-11-28T18:43:36.791Z,2.60
2022-11-28T18:46:26.077Z,2.60
2022-11-28T18:48:53.286Z,2.61
2022-11-28T18:51:26.800Z,2.66
2022-11-28T18:53:54.691Z,2.64
2022-11-28T18:56:23.405Z,2.58
2022-11-28T18:58:54.625Z,2.62
2022-11-28T19:01:22.601Z,2.58
2022-11-28T19:03:50.483Z,2.55
2022-11-28T19:06:17.499Z,2.60
2022-11-28T19:08:43.616Z,2.60
2022-11-28T19:11:14.400Z,2.58
2022-11-28T19:13:42.483Z,2.61
2022-11-28T19:16:13.709Z,2.60
2022-11-28T19:18:40.729Z,2.59
2022-11-28T19:21:10.339Z,2.58
2022-11-28T19:23:36.663Z,2.54
2022-11-28T19:26:11.144Z,2.51
2022-11-28T19:28:39.032Z,2.51
2022-11-28T19:31:15.047Z,2.51
2022-11-28T19:33:45.881Z,2.52
2022-11-28T19:36:15.830Z,2.56
2022-11-28T19:38:42.626Z,2.60
2022-11-28T19:41:10.806Z,2.55
2022-11-28T19:43:37.408Z,2.53
2022-11-28T19:46:04.519Z,2.56
2022-11-28T19:48:33.050Z,2.60
2022-11-28T19:50:59.446Z,2.58
2022-11-28T19:53:26.224Z,2.63
2022-11-28T19:55:54.065Z,2.61
2022-11-28T19:58:20.174Z,2.65
2022-11-28T20:00:46.945Z,2.61
2022-11-28T20:03:13.060Z,2.60
2022-11-28T20:05:41.248Z,2.53
2022-11-28T20:08:08.454Z,2.60
2022-11-28T20:10:36.473Z,2.67
2022-11-28T20:13:02.608Z,2.67
2022-11-28T20:15:28.909Z,2.67
2022-11-28T20:17:55.055Z,2.63
2022-11-28T20:20:22.197Z,2.63
2022-11-28T20:22:48.334Z,2.67
2022-11-28T20:25:20.520Z,2.72
2022-11-28T20:27:48.818Z,2.65
2022-11-28T20:30:15.739Z,2.64
2022-11-28T20:32:42.278Z,2.65
2022-11-28T20:35:09.591Z,2.63
2022-11-28T20:37:36.656Z,2.63
2022-11-28T20:40:02.812Z,2.63
2022-11-28T20:42:28.921Z,2.70
2022-11-28T20:44:55.065Z,2.72
2022-11-28T20:47:21.582Z,2.71
2022-11-28T20:49:47.952Z,2.73
2022-11-28T20:52:14.096Z,2.67
2022-11-28T20:54:40.273Z,2.69
2022-11-28T20:57:20.774Z,2.67
2022-11-28T20:59:47.745Z,2.69
2022-11-28T21:02:14.001Z,2.73
2022-11-28T21:04:40.186Z,2.70
2022-11-28T21:07:06.294Z,2.66
2022-11-28T21:09:32.434Z,2.67
2022-11-28T21:11:59.600Z,2.67
2022-11-28T21:14:27.614Z,2.77
2022-11-28T21:16:54.046Z,2.84
2022-11-28T21:19:20.207Z,2.80
2022-11-28T21:21:46.319Z,2.82
2022-11-28T21:24:14.342Z,2.79
2022-11-28T21:26:45.276Z,2.81
2022-11-28T21:29:14.133Z,2.75
2022-11-28T21:31:42.614Z,2.76
2022-11-28T21:34:14.516Z,2.75
2022-11-28T21:36:41.037Z,2.79
2022-11-28T21:39:07.156Z,2.82
2022-11-28T21:41:33.407Z,2.83
2022-11-28T21:44:00.165Z,2.78
2022-11-28T21:46:27.324Z,2.76
2022-11-28T21:48:53.808Z,2.71
2022-11-28T21:51:23.180Z,2.75
2022-11-28T21:53:49.742Z,2.84
2022-11-28T21:56:15.984Z,2.89
2022-11-28T21:58:42.387Z,2.87
2022-11-28T22:01:11.506Z,2.86
2022-11-28T22:03:38.374Z,2.84
2022-11-28T22:06:13.812Z,2.87
2022-11-28T22:08:39.928Z,2.81
2022-11-28T22:11:11.197Z,2.73
2022-11-28T22:13:39.140Z,2.80
2022-11-28T22:16:20.128Z,2.84
2022-11-28T22:18:48.371Z,2.85
2022-11-28T22:24:04.176Z,2.88
2022-11-28T22:26:31.227Z,2.86
2022-11-28T22:28:58.861Z,2.93
2022-11-28T22:31:25.318Z,2.91
2022-11-28T22:33:51.521Z,2.86
2022-11-28T22:36:20.575Z,2.82
2022-11-28T22:38:48.939Z,2.85
2022-11-28T22:41:27.974Z,2.87
2022-11-28T22:43:56.644Z,2.85
2022-11-28T22:46:23.273Z,2.91
2022-11-28T22:48:50.654Z,2.84
2022-11-28T22:51:23.505Z,2.95
2022-11-28T22:53:57.831Z,3.00
2022-11-28T22:56:26.732Z,2.95
2022-11-28T22:58:53.460Z,2.84
2022-11-28T23:01:24.095Z,2.83
2022-11-28T23:03:51.383Z,2.80
2022-11-28T23:06:20.421Z,2.75
2022-11-28T23:08:53.217Z,2.75
2022-11-28T23:11:22.135Z,2.72
2022-11-28T23:13:50.073Z,2.77
2022-11-28T23:16:26.855Z,2.77
2022-11-28T23:18:55.181Z,2.81
2022-11-28T23:21:23.112Z,2.76
2022-11-28T23:23:49.316Z,2.72
2022-11-28T23:26:22.007Z,2.67
2022-11-28T23:28:49.091Z,2.69
2022-11-28T23:31:25.031Z,2.65
2022-11-28T23:33:52.517Z,2.64
2022-11-28T23:36:27.093Z,2.53
2022-11-28T23:38:56.582Z,2.52
2022-11-28T23:41:23.092Z,2.50
2022-11-28T23:43:49.753Z,2.55
2022-11-28T23:46:17.766Z,2.57
2022-11-28T23:48:45.095Z,2.49
2022-11-28T23:51:15.117Z,2.50
2022-11-28T23:53:42.058Z,2.51
2022-11-28T23:56:14.133Z,2.47
2022-11-28T23:58:41.601Z,2.42
